sensor_id;sensor_type;location;lat;lon;timestamp;P1;P2;P0
72329;PMS5003;69154;52.076;5.110;2023-07-20T00:00:30;14;14;
72329;PMS5003;69154;52.076;5.110;2023-07-20T00:03:09;15;14;
72329;PMS5003;69154;52.076;5.110;2023-07-20T00:05:21;14;14;
72329;PMS5003;69154;52.076;5.110;2023-07-20T00:07:47;16;14;
72329;PMS5003;69154;52.076;5.110;2023-07-20T00:10:12;16;14;
72329;PMS5003;69154;52.076;5.110;2023-07-20T00:12:37;14;14;
72329;PMS5003;69154;52.076;5.110;2023-07-20T00:15:02;17;17;
72329;PMS5003;69154;52.076;5.110;2023-07-20T00:17:27;15;15;
72329;PMS5003;69154;52.076;5.110;2023-07-20T00:19:52;17;17;
72329;PMS5003;69154;52.076;5.110;2023-07-20T00:22:18;14;14;
72329;PMS5003;69154;52.076;5.110;2023-07-20T00:24:43;17;16;
72329;PMS5003;69154;52.076;5.110;2023-07-20T00:27:08;16;14;
72329;PMS5003;69154;52.076;5.110;2023-07-20T00:29:33;16;15;
72329;PMS5003;69154;52.076;5.110;2023-07-20T00:31:58;10;10;
72329;PMS5003;69154;52.076;5.110;2023-07-20T00:34:24;14;13;
72329;PMS5003;69154;52.076;5.110;2023-07-20T00:36:49;12;11;
72329;PMS5003;69154;52.076;5.110;2023-07-20T00:39:14;11;10;
72329;PMS5003;69154;52.076;5.110;2023-07-20T00:41:39;10;10;
72329;PMS5003;69154;52.076;5.110;2023-07-20T00:44:04;8;7;
72329;PMS5003;69154;52.076;5.110;2023-07-20T00:46:29;9;9;
72329;PMS5003;69154;52.076;5.110;2023-07-20T00:48:54;8;8;
72329;PMS5003;69154;52.076;5.110;2023-07-20T00:51:19;6;5;
72329;PMS5003;69154;52.076;5.110;2023-07-20T00:53:44;8;7;
72329;PMS5003;69154;52.076;5.110;2023-07-20T00:56:09;6;6;
72329;PMS5003;69154;52.076;5.110;2023-07-20T00:58:34;6;6;
72329;PMS5003;69154;52.076;5.110;2023-07-20T01:00:59;6;6;
72329;PMS5003;69154;52.076;5.110;2023-07-20T01:03:24;4;4;
72329;PMS5003;69154;52.076;5.110;2023-07-20T01:05:51;3;3;
72329;PMS5003;69154;52.076;5.110;2023-07-20T01:08:16;6;5;
72329;PMS5003;69154;52.076;5.110;2023-07-20T01:10:41;5;5;
72329;PMS5003;69154;52.076;5.110;2023-07-20T01:13:05;5;4;
72329;PMS5003;69154;52.076;5.110;2023-07-20T01:15:30;6;5;
72329;PMS5003;69154;52.076;5.110;2023-07-20T01:17:55;6;5;
72329;PMS5003;69154;52.076;5.110;2023-07-20T01:20:20;5;5;
72329;PMS5003;69154;52.076;5.110;2023-07-20T01:22:50;5;5;
72329;PMS5003;69154;52.076;5.110;2023-07-20T01:25:20;6;5;
72329;PMS5003;69154;52.076;5.110;2023-07-20T01:27:38;5;5;
72329;PMS5003;69154;52.076;5.110;2023-07-20T01:30:09;6;6;
72329;PMS5003;69154;52.076;5.110;2023-07-20T01:32:26;4;4;
72329;PMS5003;69154;52.076;5.110;2023-07-20T01:34:51;6;6;
72329;PMS5003;69154;52.076;5.110;2023-07-20T01:37:16;6;5;
72329;PMS5003;69154;52.076;5.110;2023-07-20T01:39:41;6;5;
72329;PMS5003;69154;52.076;5.110;2023-07-20T01:42:06;5;5;
72329;PMS5003;69154;52.076;5.110;2023-07-20T01:44:31;5;5;
72329;PMS5003;69154;52.076;5.110;2023-07-20T01:46:56;6;5;
72329;PMS5003;69154;52.076;5.110;2023-07-20T01:49:21;6;6;
72329;PMS5003;69154;52.076;5.110;2023-07-20T01:51:46;6;5;
72329;PMS5003;69154;52.076;5.110;2023-07-20T01:54:11;6;6;
72329;PMS5003;69154;52.076;5.110;2023-07-20T01:56:37;6;6;
72329;PMS5003;69154;52.076;5.110;2023-07-20T01:59:02;6;6;
72329;PMS5003;69154;52.076;5.110;2023-07-20T02:01:27;6;6;
72329;PMS5003;69154;52.076;5.110;2023-07-20T02:03:52;4;4;
72329;PMS5003;69154;52.076;5.110;2023-07-20T02:06:17;5;5;
72329;PMS5003;69154;52.076;5.110;2023-07-20T02:08:42;7;6;
72329;PMS5003;69154;52.076;5.110;2023-07-20T02:11:07;5;5;
72329;PMS5003;69154;52.076;5.110;2023-07-20T02:13:32;6;6;
72329;PMS5003;69154;52.076;5.110;2023-07-20T02:15:57;7;6;
72329;PMS5003;69154;52.076;5.110;2023-07-20T02:18:23;6;6;
72329;PMS5003;69154;52.076;5.110;2023-07-20T02:20:49;6;6;
72329;PMS5003;69154;52.076;5.110;2023-07-20T02:23:13;6;5;
72329;PMS5003;69154;52.076;5.110;2023-07-20T02:25:39;7;7;
72329;PMS5003;69154;52.076;5.110;2023-07-20T02:28:04;7;7;
72329;PMS5003;69154;52.076;5.110;2023-07-20T02:30:29;7;7;
72329;PMS5003;69154;52.076;5.110;2023-07-20T02:32:54;7;7;
72329;PMS5003;69154;52.076;5.110;2023-07-20T02:35:19;7;7;
72329;PMS5003;69154;52.076;5.110;2023-07-20T02:37:44;6;6;
72329;PMS5003;69154;52.076;5.110;2023-07-20T02:40:10;6;6;
72329;PMS5003;69154;52.076;5.110;2023-07-20T02:42:34;8;8;
72329;PMS5003;69154;52.076;5.110;2023-07-20T02:45:00;9;9;
72329;PMS5003;69154;52.076;5.110;2023-07-20T02:47:25;8;8;
72329;PMS5003;69154;52.076;5.110;2023-07-20T02:49:50;8;8;
72329;PMS5003;69154;52.076;5.110;2023-07-20T02:52:15;13;13;
72329;PMS5003;69154;52.076;5.110;2023-07-20T02:54:40;13;11;
72329;PMS5003;69154;52.076;5.110;2023-07-20T02:57:05;12;10;
72329;PMS5003;69154;52.076;5.110;2023-07-20T02:59:30;9;9;
72329;PMS5003;69154;52.076;5.110;2023-07-20T03:01:55;8;8;
72329;PMS5003;69154;52.076;5.110;2023-07-20T03:04:21;14;12;
72329;PMS5003;69154;52.076;5.110;2023-07-20T03:06:46;12;12;
72329;PMS5003;69154;52.076;5.110;2023-07-20T03:09:11;14;13;
72329;PMS5003;69154;52.076;5.110;2023-07-20T03:11:36;14;13;
72329;PMS5003;69154;52.076;5.110;2023-07-20T03:14:01;14;13;
72329;PMS5003;69154;52.076;5.110;2023-07-20T03:16:26;16;15;
72329;PMS5003;69154;52.076;5.110;2023-07-20T03:18:51;16;16;
72329;PMS5003;69154;52.076;5.110;2023-07-20T03:21:17;13;13;
72329;PMS5003;69154;52.076;5.110;2023-07-20T03:23:42;12;12;
72329;PMS5003;69154;52.076;5.110;2023-07-20T03:26:08;12;12;
72329;PMS5003;69154;52.076;5.110;2023-07-20T03:28:32;15;15;
72329;PMS5003;69154;52.076;5.110;2023-07-20T03:30:58;16;15;
72329;PMS5003;69154;52.076;5.110;2023-07-20T03:33:25;14;14;
72329;PMS5003;69154;52.076;5.110;2023-07-20T03:35:49;13;12;
72329;PMS5003;69154;52.076;5.110;2023-07-20T03:38:14;15;14;
72329;PMS5003;69154;52.076;5.110;2023-07-20T03:40:40;13;13;
72329;PMS5003;69154;52.076;5.110;2023-07-20T03:43:04;13;13;
72329;PMS5003;69154;52.076;5.110;2023-07-20T03:45:30;12;12;
72329;PMS5003;69154;52.076;5.110;2023-07-20T03:47:55;14;14;
72329;PMS5003;69154;52.076;5.110;2023-07-20T03:50:20;11;11;
72329;PMS5003;69154;52.076;5.110;2023-07-20T03:52:45;15;13;
72329;PMS5003;69154;52.076;5.110;2023-07-20T03:55:10;15;14;
72329;PMS5003;69154;52.076;5.110;2023-07-20T03:57:35;17;16;
72329;PMS5003;69154;52.076;5.110;2023-07-20T04:00:00;18;15;
72329;PMS5003;69154;52.076;5.110;2023-07-20T04:02:26;14;14;
72329;PMS5003;69154;52.076;5.110;2023-07-20T04:04:51;14;13;
72329;PMS5003;69154;52.076;5.110;2023-07-20T04:07:16;14;14;
72329;PMS5003;69154;52.076;5.110;2023-07-20T04:09:41;17;17;
72329;PMS5003;69154;52.076;5.110;2023-07-20T04:12:07;17;16;
72329;PMS5003;69154;52.076;5.110;2023-07-20T04:14:32;15;15;
72329;PMS5003;69154;52.076;5.110;2023-07-20T04:16:57;14;14;
72329;PMS5003;69154;52.076;5.110;2023-07-20T04:19:22;16;16;
72329;PMS5003;69154;52.076;5.110;2023-07-20T04:21:48;18;16;
72329;PMS5003;69154;52.076;5.110;2023-07-20T04:24:14;17;17;
72329;PMS5003;69154;52.076;5.110;2023-07-20T04:26:40;18;18;
72329;PMS5003;69154;52.076;5.110;2023-07-20T04:29:05;18;18;
72329;PMS5003;69154;52.076;5.110;2023-07-20T04:31:30;15;15;
72329;PMS5003;69154;52.076;5.110;2023-07-20T04:33:56;18;17;
72329;PMS5003;69154;52.076;5.110;2023-07-20T04:36:21;14;14;
72329;PMS5003;69154;52.076;5.110;2023-07-20T04:38:46;18;17;
72329;PMS5003;69154;52.076;5.110;2023-07-20T04:41:11;17;17;
72329;PMS5003;69154;52.076;5.110;2023-07-20T04:43:40;17;16;
72329;PMS5003;69154;52.076;5.110;2023-07-20T04:46:03;18;18;
72329;PMS5003;69154;52.076;5.110;2023-07-20T04:48:28;17;15;
72329;PMS5003;69154;52.076;5.110;2023-07-20T04:50:54;16;16;
72329;PMS5003;69154;52.076;5.110;2023-07-20T04:53:19;16;16;
72329;PMS5003;69154;52.076;5.110;2023-07-20T04:55:47;15;15;
72329;PMS5003;69154;52.076;5.110;2023-07-20T04:58:09;15;15;
72329;PMS5003;69154;52.076;5.110;2023-07-20T05:00:34;14;12;
72329;PMS5003;69154;52.076;5.110;2023-07-20T05:02:59;14;13;
72329;PMS5003;69154;52.076;5.110;2023-07-20T05:05:25;15;14;
72329;PMS5003;69154;52.076;5.110;2023-07-20T05:07:49;11;11;
72329;PMS5003;69154;52.076;5.110;2023-07-20T05:10:15;11;11;
72329;PMS5003;69154;52.076;5.110;2023-07-20T05:12:40;10;10;
72329;PMS5003;69154;52.076;5.110;2023-07-20T05:15:05;11;11;
72329;PMS5003;69154;52.076;5.110;2023-07-20T05:17:30;9;9;
72329;PMS5003;69154;52.076;5.110;2023-07-20T05:19:56;8;8;
72329;PMS5003;69154;52.076;5.110;2023-07-20T05:22:22;8;8;
72329;PMS5003;69154;52.076;5.110;2023-07-20T05:24:48;7;7;
72329;PMS5003;69154;52.076;5.110;2023-07-20T05:27:13;7;7;
72329;PMS5003;69154;52.076;5.110;2023-07-20T05:29:43;5;5;
72329;PMS5003;69154;52.076;5.110;2023-07-20T05:32:05;4;4;
72329;PMS5003;69154;52.076;5.110;2023-07-20T05:34:31;3;3;
72329;PMS5003;69154;52.076;5.110;2023-07-20T05:36:56;3;3;
72329;PMS5003;69154;52.076;5.110;2023-07-20T05:39:22;3;3;
72329;PMS5003;69154;52.076;5.110;2023-07-20T05:41:48;3;3;
72329;PMS5003;69154;52.076;5.110;2023-07-20T05:44:14;4;4;
72329;PMS5003;69154;52.076;5.110;2023-07-20T05:46:40;3;3;
72329;PMS5003;69154;52.076;5.110;2023-07-20T05:49:05;3;3;
72329;PMS5003;69154;52.076;5.110;2023-07-20T05:51:31;2;2;
72329;PMS5003;69154;52.076;5.110;2023-07-20T05:53:57;2;2;
72329;PMS5003;69154;52.076;5.110;2023-07-20T05:56:23;2;2;
72329;PMS5003;69154;52.076;5.110;2023-07-20T05:58:49;3;3;
72329;PMS5003;69154;52.076;5.110;2023-07-20T06:01:14;2;2;
72329;PMS5003;69154;52.076;5.110;2023-07-20T06:03:41;2;2;
72329;PMS5003;69154;52.076;5.110;2023-07-20T06:06:06;3;3;
72329;PMS5003;69154;52.076;5.110;2023-07-20T06:08:32;3;3;
72329;PMS5003;69154;52.076;5.110;2023-07-20T06:10:58;3;3;
72329;PMS5003;69154;52.076;5.110;2023-07-20T06:13:23;3;3;
72329;PMS5003;69154;52.076;5.110;2023-07-20T06:15:48;1;1;
72329;PMS5003;69154;52.076;5.110;2023-07-20T06:18:13;1;1;
72329;PMS5003;69154;52.076;5.110;2023-07-20T06:20:38;2;2;
72329;PMS5003;69154;52.076;5.110;2023-07-20T06:23:03;2;2;
72329;PMS5003;69154;52.076;5.110;2023-07-20T06:25:28;3;3;
72329;PMS5003;69154;52.076;5.110;2023-07-20T06:27:54;4;2;
72329;PMS5003;69154;52.076;5.110;2023-07-20T06:30:18;2;2;
72329;PMS5003;69154;52.076;5.110;2023-07-20T06:32:43;5;4;
72329;PMS5003;69154;52.076;5.110;2023-07-20T06:35:08;2;2;
72329;PMS5003;69154;52.076;5.110;2023-07-20T06:37:34;3;3;
72329;PMS5003;69154;52.076;5.110;2023-07-20T06:39:58;3;3;
72329;PMS5003;69154;52.076;5.110;2023-07-20T06:42:23;1;1;
72329;PMS5003;69154;52.076;5.110;2023-07-20T06:44:48;3;2;
72329;PMS5003;69154;52.076;5.110;2023-07-20T06:47:14;4;3;
72329;PMS5003;69154;52.076;5.110;2023-07-20T06:49:39;2;2;
72329;PMS5003;69154;52.076;5.110;2023-07-20T06:52:04;2;2;
72329;PMS5003;69154;52.076;5.110;2023-07-20T06:54:28;3;3;
72329;PMS5003;69154;52.076;5.110;2023-07-20T06:56:54;2;2;
72329;PMS5003;69154;52.076;5.110;2023-07-20T06:59:19;2;2;
72329;PMS5003;69154;52.076;5.110;2023-07-20T07:01:45;2;2;
72329;PMS5003;69154;52.076;5.110;2023-07-20T07:04:11;2;2;
72329;PMS5003;69154;52.076;5.110;2023-07-20T07:06:37;2;2;
72329;PMS5003;69154;52.076;5.110;2023-07-20T07:09:03;2;2;
72329;PMS5003;69154;52.076;5.110;2023-07-20T07:11:28;2;2;
72329;PMS5003;69154;52.076;5.110;2023-07-20T07:13:54;1;1;
72329;PMS5003;69154;52.076;5.110;2023-07-20T07:16:20;3;3;
72329;PMS5003;69154;52.076;5.110;2023-07-20T07:18:46;2;2;
72329;PMS5003;69154;52.076;5.110;2023-07-20T07:21:12;2;2;
72329;PMS5003;69154;52.076;5.110;2023-07-20T07:23:38;2;2;
72329;PMS5003;69154;52.076;5.110;2023-07-20T07:26:03;1;1;
72329;PMS5003;69154;52.076;5.110;2023-07-20T07:28:29;3;3;
72329;PMS5003;69154;52.076;5.110;2023-07-20T07:30:55;2;2;
72329;PMS5003;69154;52.076;5.110;2023-07-20T07:33:21;2;2;
72329;PMS5003;69154;52.076;5.110;2023-07-20T07:35:47;1;1;
72329;PMS5003;69154;52.076;5.110;2023-07-20T07:38:13;1;1;
72329;PMS5003;69154;52.076;5.110;2023-07-20T07:40:39;1;1;
72329;PMS5003;69154;52.076;5.110;2023-07-20T07:43:04;2;2;
72329;PMS5003;69154;52.076;5.110;2023-07-20T07:45:30;2;2;
72329;PMS5003;69154;52.076;5.110;2023-07-20T07:47:55;2;2;
72329;PMS5003;69154;52.076;5.110;2023-07-20T07:50:21;1;1;
72329;PMS5003;69154;52.076;5.110;2023-07-20T07:52:45;2;2;
72329;PMS5003;69154;52.076;5.110;2023-07-20T07:55:10;2;2;
72329;PMS5003;69154;52.076;5.110;2023-07-20T07:57:35;2;2;
72329;PMS5003;69154;52.076;5.110;2023-07-20T08:00:01;1;1;
72329;PMS5003;69154;52.076;5.110;2023-07-20T08:02:27;1;1;
72329;PMS5003;69154;52.076;5.110;2023-07-20T08:04:52;1;1;
72329;PMS5003;69154;52.076;5.110;2023-07-20T08:07:18;2;2;
72329;PMS5003;69154;52.076;5.110;2023-07-20T08:09:44;3;3;
72329;PMS5003;69154;52.076;5.110;2023-07-20T08:12:10;1;1;
72329;PMS5003;69154;52.076;5.110;2023-07-20T08:14:35;3;2;
72329;PMS5003;69154;52.076;5.110;2023-07-20T08:17:01;1;1;
72329;PMS5003;69154;52.076;5.110;2023-07-20T08:19:27;2;2;
72329;PMS5003;69154;52.076;5.110;2023-07-20T08:21:53;3;3;
72329;PMS5003;69154;52.076;5.110;2023-07-20T08:24:19;4;4;
72329;PMS5003;69154;52.076;5.110;2023-07-20T08:26:45;2;2;
72329;PMS5003;69154;52.076;5.110;2023-07-20T08:29:10;1;1;
72329;PMS5003;69154;52.076;5.110;2023-07-20T08:31:36;1;1;
72329;PMS5003;69154;52.076;5.110;2023-07-20T08:34:02;2;2;
72329;PMS5003;69154;52.076;5.110;2023-07-20T08:36:28;2;2;
72329;PMS5003;69154;52.076;5.110;2023-07-20T08:38:54;2;2;
72329;PMS5003;69154;52.076;5.110;2023-07-20T08:41:20;2;2;
72329;PMS5003;69154;52.076;5.110;2023-07-20T08:43:46;2;2;
72329;PMS5003;69154;52.076;5.110;2023-07-20T08:46:11;3;2;
72329;PMS5003;69154;52.076;5.110;2023-07-20T08:48:37;2;2;
72329;PMS5003;69154;52.076;5.110;2023-07-20T08:51:03;1;1;
72329;PMS5003;69154;52.076;5.110;2023-07-20T08:53:29;2;2;
72329;PMS5003;69154;52.076;5.110;2023-07-20T08:55:54;3;3;
72329;PMS5003;69154;52.076;5.110;2023-07-20T08:58:20;2;1;
72329;PMS5003;69154;52.076;5.110;2023-07-20T09:00:46;3;3;
72329;PMS5003;69154;52.076;5.110;2023-07-20T09:03:11;2;2;
72329;PMS5003;69154;52.076;5.110;2023-07-20T09:05:37;2;2;
72329;PMS5003;69154;52.076;5.110;2023-07-20T09:08:03;4;4;
72329;PMS5003;69154;52.076;5.110;2023-07-20T09:10:29;3;3;
72329;PMS5003;69154;52.076;5.110;2023-07-20T09:12:55;2;2;
72329;PMS5003;69154;52.076;5.110;2023-07-20T09:15:21;3;3;
72329;PMS5003;69154;52.076;5.110;2023-07-20T09:17:46;5;5;
72329;PMS5003;69154;52.076;5.110;2023-07-20T09:20:12;2;2;
72329;PMS5003;69154;52.076;5.110;2023-07-20T09:22:38;21;20;
72329;PMS5003;69154;52.076;5.110;2023-07-20T09:25:05;13;12;
72329;PMS5003;69154;52.076;5.110;2023-07-20T09:27:34;5;5;
72329;PMS5003;69154;52.076;5.110;2023-07-20T09:29:55;4;4;
72329;PMS5003;69154;52.076;5.110;2023-07-20T09:32:21;3;3;
72329;PMS5003;69154;52.076;5.110;2023-07-20T09:34:46;1;1;
72329;PMS5003;69154;52.076;5.110;2023-07-20T09:37:12;2;2;
72329;PMS5003;69154;52.076;5.110;2023-07-20T09:39:42;0;0;
72329;PMS5003;69154;52.076;5.110;2023-07-20T09:42:04;2;2;
72329;PMS5003;69154;52.076;5.110;2023-07-20T09:44:29;0;0;
72329;PMS5003;69154;52.076;5.110;2023-07-20T09:46:55;1;0;
72329;PMS5003;69154;52.076;5.110;2023-07-20T09:49:21;2;2;
72329;PMS5003;69154;52.076;5.110;2023-07-20T09:51:46;2;2;
72329;PMS5003;69154;52.076;5.110;2023-07-20T09:54:11;0;0;
72329;PMS5003;69154;52.076;5.110;2023-07-20T09:56:36;1;1;
72329;PMS5003;69154;52.076;5.110;2023-07-20T09:59:02;2;1;
72329;PMS5003;69154;52.076;5.110;2023-07-20T10:01:28;1;1;
72329;PMS5003;69154;52.076;5.110;2023-07-20T10:03:53;1;1;
72329;PMS5003;69154;52.076;5.110;2023-07-20T10:06:19;3;3;
72329;PMS5003;69154;52.076;5.110;2023-07-20T10:08:43;1;1;
72329;PMS5003;69154;52.076;5.110;2023-07-20T10:11:08;2;2;
72329;PMS5003;69154;52.076;5.110;2023-07-20T10:13:37;1;1;
72329;PMS5003;69154;52.076;5.110;2023-07-20T10:16:01;2;2;
72329;PMS5003;69154;52.076;5.110;2023-07-20T10:18:25;3;2;
72329;PMS5003;69154;52.076;5.110;2023-07-20T10:20:50;2;2;
72329;PMS5003;69154;52.076;5.110;2023-07-20T10:23:15;2;2;
72329;PMS5003;69154;52.076;5.110;2023-07-20T10:25:41;2;2;
72329;PMS5003;69154;52.076;5.110;2023-07-20T10:28:06;2;2;
72329;PMS5003;69154;52.076;5.110;2023-07-20T10:30:32;1;1;
72329;PMS5003;69154;52.076;5.110;2023-07-20T10:32:57;1;1;
72329;PMS5003;69154;52.076;5.110;2023-07-20T10:35:23;1;1;
72329;PMS5003;69154;52.076;5.110;2023-07-20T10:37:49;1;1;
72329;PMS5003;69154;52.076;5.110;2023-07-20T10:40:30;2;2;
72329;PMS5003;69154;52.076;5.110;2023-07-20T10:42:39;2;2;
72329;PMS5003;69154;52.076;5.110;2023-07-20T10:45:04;3;3;
72329;PMS5003;69154;52.076;5.110;2023-07-20T10:47:29;2;2;
72329;PMS5003;69154;52.076;5.110;2023-07-20T10:49:58;2;2;
72329;PMS5003;69154;52.076;5.110;2023-07-20T10:52:20;3;3;
72329;PMS5003;69154;52.076;5.110;2023-07-20T10:54:47;2;2;
72329;PMS5003;69154;52.076;5.110;2023-07-20T10:57:43;3;3;
72329;PMS5003;69154;52.076;5.110;2023-07-20T10:59:36;3;3;
72329;PMS5003;69154;52.076;5.110;2023-07-20T11:02:03;2;2;
72329;PMS5003;69154;52.076;5.110;2023-07-20T11:04:37;3;3;
72329;PMS5003;69154;52.076;5.110;2023-07-20T11:06:54;4;4;
72329;PMS5003;69154;52.076;5.110;2023-07-20T11:09:21;3;3;
72329;PMS5003;69154;52.076;5.110;2023-07-20T11:11:43;3;3;
72329;PMS5003;69154;52.076;5.110;2023-07-20T11:14:09;2;2;
72329;PMS5003;69154;52.076;5.110;2023-07-20T11:16:34;2;2;
72329;PMS5003;69154;52.076;5.110;2023-07-20T11:18:59;4;4;
72329;PMS5003;69154;52.076;5.110;2023-07-20T11:21:24;3;3;
72329;PMS5003;69154;52.076;5.110;2023-07-20T11:23:50;3;3;
72329;PMS5003;69154;52.076;5.110;2023-07-20T11:26:16;4;4;
72329;PMS5003;69154;52.076;5.110;2023-07-20T11:28:40;2;2;
72329;PMS5003;69154;52.076;5.110;2023-07-20T11:31:07;2;2;
72329;PMS5003;69154;52.076;5.110;2023-07-20T11:33:33;2;2;
72329;PMS5003;69154;52.076;5.110;2023-07-20T11:35:57;4;4;
72329;PMS5003;69154;52.076;5.110;2023-07-20T11:38:23;3;3;
72329;PMS5003;69154;52.076;5.110;2023-07-20T11:40:48;4;4;
72329;PMS5003;69154;52.076;5.110;2023-07-20T11:43:13;4;4;
72329;PMS5003;69154;52.076;5.110;2023-07-20T11:45:38;3;3;
72329;PMS5003;69154;52.076;5.110;2023-07-20T11:48:04;3;3;
72329;PMS5003;69154;52.076;5.110;2023-07-20T11:50:29;3;3;
72329;PMS5003;69154;52.076;5.110;2023-07-20T11:52:55;3;3;
72329;PMS5003;69154;52.076;5.110;2023-07-20T11:55:20;4;4;
72329;PMS5003;69154;52.076;5.110;2023-07-20T11:58:00;4;4;
72329;PMS5003;69154;52.076;5.110;2023-07-20T12:00:11;3;3;
72329;PMS5003;69154;52.076;5.110;2023-07-20T12:02:37;2;2;
72329;PMS5003;69154;52.076;5.110;2023-07-20T12:05:02;3;3;
72329;PMS5003;69154;52.076;5.110;2023-07-20T12:07:28;3;3;
72329;PMS5003;69154;52.076;5.110;2023-07-20T12:10:09;3;3;
72329;PMS5003;69154;52.076;5.110;2023-07-20T12:12:18;2;2;
72329;PMS5003;69154;52.076;5.110;2023-07-20T12:14:43;2;2;
72329;PMS5003;69154;52.076;5.110;2023-07-20T12:17:09;3;3;
72329;PMS5003;69154;52.076;5.110;2023-07-20T12:19:37;4;4;
72329;PMS5003;69154;52.076;5.110;2023-07-20T12:21:59;4;4;
72329;PMS5003;69154;52.076;5.110;2023-07-20T12:24:25;3;3;
72329;PMS5003;69154;52.076;5.110;2023-07-20T12:26:55;3;3;
72329;PMS5003;69154;52.076;5.110;2023-07-20T12:29:16;3;3;
72329;PMS5003;69154;52.076;5.110;2023-07-20T12:31:42;5;5;
72329;PMS5003;69154;52.076;5.110;2023-07-20T12:34:07;4;4;
72329;PMS5003;69154;52.076;5.110;2023-07-20T12:36:33;4;4;
72329;PMS5003;69154;52.076;5.110;2023-07-20T12:38:58;3;3;
72329;PMS5003;69154;52.076;5.110;2023-07-20T12:41:24;4;4;
72329;PMS5003;69154;52.076;5.110;2023-07-20T12:43:50;3;3;
72329;PMS5003;69154;52.076;5.110;2023-07-20T12:46:15;4;4;
72329;PMS5003;69154;52.076;5.110;2023-07-20T12:48:41;3;3;
72329;PMS5003;69154;52.076;5.110;2023-07-20T12:51:06;5;5;
72329;PMS5003;69154;52.076;5.110;2023-07-20T12:53:32;3;3;
72329;PMS5003;69154;52.076;5.110;2023-07-20T12:55:57;2;2;
72329;PMS5003;69154;52.076;5.110;2023-07-20T12:58:22;2;2;
72329;PMS5003;69154;52.076;5.110;2023-07-20T13:00:48;4;4;
72329;PMS5003;69154;52.076;5.110;2023-07-20T13:03:13;4;4;
72329;PMS5003;69154;52.076;5.110;2023-07-20T13:05:38;3;3;
72329;PMS5003;69154;52.076;5.110;2023-07-20T13:08:04;3;3;
72329;PMS5003;69154;52.076;5.110;2023-07-20T13:10:29;3;3;
72329;PMS5003;69154;52.076;5.110;2023-07-20T13:12:55;3;3;
72329;PMS5003;69154;52.076;5.110;2023-07-20T13:15:21;2;2;
72329;PMS5003;69154;52.076;5.110;2023-07-20T13:17:46;4;4;
72329;PMS5003;69154;52.076;5.110;2023-07-20T13:20:11;5;5;
72329;PMS5003;69154;52.076;5.110;2023-07-20T13:22:37;5;5;
72329;PMS5003;69154;52.076;5.110;2023-07-20T13:25:02;3;3;
72329;PMS5003;69154;52.076;5.110;2023-07-20T13:27:27;5;5;
72329;PMS5003;69154;52.076;5.110;2023-07-20T13:29:53;4;4;
72329;PMS5003;69154;52.076;5.110;2023-07-20T13:32:18;6;6;
72329;PMS5003;69154;52.076;5.110;2023-07-20T13:34:44;5;5;
72329;PMS5003;69154;52.076;5.110;2023-07-20T13:37:09;2;2;
72329;PMS5003;69154;52.076;5.110;2023-07-20T13:39:35;5;5;
72329;PMS5003;69154;52.076;5.110;2023-07-20T13:42:00;3;3;
72329;PMS5003;69154;52.076;5.110;2023-07-20T13:44:25;5;5;
72329;PMS5003;69154;52.076;5.110;2023-07-20T13:46:51;2;2;
72329;PMS5003;69154;52.076;5.110;2023-07-20T13:49:16;4;3;
72329;PMS5003;69154;52.076;5.110;2023-07-20T13:51:42;7;7;
72329;PMS5003;69154;52.076;5.110;2023-07-20T13:54:07;3;2;
72329;PMS5003;69154;52.076;5.110;2023-07-20T13:56:33;3;3;
72329;PMS5003;69154;52.076;5.110;2023-07-20T13:58:58;4;4;
72329;PMS5003;69154;52.076;5.110;2023-07-20T14:01:23;3;3;
72329;PMS5003;69154;52.076;5.110;2023-07-20T14:03:49;2;2;
72329;PMS5003;69154;52.076;5.110;2023-07-20T14:06:14;3;3;
72329;PMS5003;69154;52.076;5.110;2023-07-20T14:08:39;1;1;
72329;PMS5003;69154;52.076;5.110;2023-07-20T14:11:05;3;3;
72329;PMS5003;69154;52.076;5.110;2023-07-20T14:13:30;2;2;
72329;PMS5003;69154;52.076;5.110;2023-07-20T14:15:56;5;5;
72329;PMS5003;69154;52.076;5.110;2023-07-20T14:18:21;3;3;
72329;PMS5003;69154;52.076;5.110;2023-07-20T14:20:46;3;3;
72329;PMS5003;69154;52.076;5.110;2023-07-20T14:23:17;3;3;
72329;PMS5003;69154;52.076;5.110;2023-07-20T14:25:37;3;3;
72329;PMS5003;69154;52.076;5.110;2023-07-20T14:28:03;1;1;
72329;PMS5003;69154;52.076;5.110;2023-07-20T14:30:28;3;3;
72329;PMS5003;69154;52.076;5.110;2023-07-20T14:32:54;1;1;
72329;PMS5003;69154;52.076;5.110;2023-07-20T14:35:19;1;1;
72329;PMS5003;69154;52.076;5.110;2023-07-20T14:37:45;1;1;
72329;PMS5003;69154;52.076;5.110;2023-07-20T14:40:10;2;2;
72329;PMS5003;69154;52.076;5.110;2023-07-20T14:42:35;2;2;
72329;PMS5003;69154;52.076;5.110;2023-07-20T14:45:01;2;2;
72329;PMS5003;69154;52.076;5.110;2023-07-20T14:47:26;2;2;
72329;PMS5003;69154;52.076;5.110;2023-07-20T14:49:51;2;2;
72329;PMS5003;69154;52.076;5.110;2023-07-20T14:52:17;3;3;
72329;PMS5003;69154;52.076;5.110;2023-07-20T14:54:42;2;2;
72329;PMS5003;69154;52.076;5.110;2023-07-20T14:57:07;3;3;
72329;PMS5003;69154;52.076;5.110;2023-07-20T14:59:33;2;2;
72329;PMS5003;69154;52.076;5.110;2023-07-20T15:01:58;3;3;
72329;PMS5003;69154;52.076;5.110;2023-07-20T15:04:24;4;4;
72329;PMS5003;69154;52.076;5.110;2023-07-20T15:06:49;2;2;
72329;PMS5003;69154;52.076;5.110;2023-07-20T15:09:15;3;2;
72329;PMS5003;69154;52.076;5.110;2023-07-20T15:11:40;2;2;
72329;PMS5003;69154;52.076;5.110;2023-07-20T15:14:06;2;2;
72329;PMS5003;69154;52.076;5.110;2023-07-20T15:16:32;2;2;
72329;PMS5003;69154;52.076;5.110;2023-07-20T15:18:57;1;1;
72329;PMS5003;69154;52.076;5.110;2023-07-20T15:21:23;2;2;
72329;PMS5003;69154;52.076;5.110;2023-07-20T15:23:49;4;3;
72329;PMS5003;69154;52.076;5.110;2023-07-20T15:26:14;2;2;
72329;PMS5003;69154;52.076;5.110;2023-07-20T15:28:39;2;2;
72329;PMS5003;69154;52.076;5.110;2023-07-20T15:31:05;3;3;
72329;PMS5003;69154;52.076;5.110;2023-07-20T15:33:31;3;3;
72329;PMS5003;69154;52.076;5.110;2023-07-20T15:35:56;4;4;
72329;PMS5003;69154;52.076;5.110;2023-07-20T15:38:22;1;1;
72329;PMS5003;69154;52.076;5.110;2023-07-20T15:40:47;3;3;
72329;PMS5003;69154;52.076;5.110;2023-07-20T15:43:13;2;2;
72329;PMS5003;69154;52.076;5.110;2023-07-20T15:45:38;1;1;
72329;PMS5003;69154;52.076;5.110;2023-07-20T15:48:04;2;2;
72329;PMS5003;69154;52.076;5.110;2023-07-20T15:50:29;3;3;
72329;PMS5003;69154;52.076;5.110;2023-07-20T15:52:55;1;1;
72329;PMS5003;69154;52.076;5.110;2023-07-20T15:55:21;2;2;
72329;PMS5003;69154;52.076;5.110;2023-07-20T15:57:46;0;0;
72329;PMS5003;69154;52.076;5.110;2023-07-20T16:00:12;2;2;
72329;PMS5003;69154;52.076;5.110;2023-07-20T16:02:37;2;2;
72329;PMS5003;69154;52.076;5.110;2023-07-20T16:05:03;1;1;
72329;PMS5003;69154;52.076;5.110;2023-07-20T16:07:29;2;2;
72329;PMS5003;69154;52.076;5.110;2023-07-20T16:09:54;3;2;
72329;PMS5003;69154;52.076;5.110;2023-07-20T16:12:20;1;1;
72329;PMS5003;69154;52.076;5.110;2023-07-20T16:14:45;1;1;
72329;PMS5003;69154;52.076;5.110;2023-07-20T16:17:12;2;2;
72329;PMS5003;69154;52.076;5.110;2023-07-20T16:19:36;3;3;
72329;PMS5003;69154;52.076;5.110;2023-07-20T16:22:03;1;1;
72329;PMS5003;69154;52.076;5.110;2023-07-20T16:24:28;1;1;
72329;PMS5003;69154;52.076;5.110;2023-07-20T16:26:54;2;2;
72329;PMS5003;69154;52.076;5.110;2023-07-20T16:29:19;2;2;
72329;PMS5003;69154;52.076;5.110;2023-07-20T16:31:45;1;1;